Viroqua, WI

3:14 PM CDT on October 31, 2014 (GMT -0500)
Viroqua | Change Station
CLOSE
Current Station
Airport
Location: Viroqua,
Elevation: 1293 ft
Nearby Weather Stations

Elev 1293 ft 43.58 °N, 90.90 °W | Updated 19 minutes ago

Mostly Cloudy
Mostly Cloudy
38 °F
Feels Like 30 °F
N
13
Wind Variable Wind from North
Gusts 17 mph

Today
High -- | Low -- °F
--% Chance of Precip.
Yesterday
High -- | Low -- °F
Precip. -- in
7:37 AM 5:55 PM
First Quarter, 58% visible
Pressure 30.38 in
Visibility 10.0 miles
Clouds Mostly Cloudy 4300 ft
Mostly Cloudy 5000 ft
Windchill 30 °F
Dew Point 19 °F
Humidity 47%
Rainfall 0.00 in
Snow Depth Not available.
UV 1 out of 12
Pollen .10 out of 12
Air Quality Not available.
Flu Activity Not available.
METAR KY51 311955Z AUTO 36011G15KT 10SM BKN043 BKN050 03/M07 A3038 RMK AO1 T00341070

More Conditions Fewer Conditions

Pressure 30.38 in
Visibility 10.0 miles
Clouds Mostly Cloudy 4300 ft
Mostly Cloudy 5000 ft
Windchill 30 °F
Dew Point 19 °F
Humidity 47%
Rainfall 0.00 in
Snow Depth Not available.
UV 1 out of 12
Pollen .10 out of 12
Air Quality Not available.
Flu Activity Not available.
METAR KY51 311955Z AUTO 36011G15KT 10SM BKN043 BKN050 03/M07 A3038 RMK AO1 T00341070

More Conditions Fewer Conditions

10-Day Weather Forecast

Almanac

Astronomy

Oct. 31, 2014 Rise Set
Actual Time
Civil Twilight
Nautical Twilight
Astronomical Twilight
Moon
Length of Visible Light
Length of Day
Tomorrow will be .
, % of the Moon is Illuminated

Today's Extremes

State Highs State Lows

Community

WunderPhotos

Upload Photos

1,766,717 photos uploaded!

WunderBlogs® & News

Nearby

Air Quality

  Air Quality AQ Index Pollutant
Not available.

Snow Depth

Station Depth Elevation

Earthquake Activity

City Distance Mag. Time & Date
Minimum magnitude displayed is 2.5.

Coastal Water Temperatures

Place Temperature

Nearby Weather Stations